Time;durP1;ratioP1;P1;durP2;ratioP2;P2;SDS_P1;SDS_P2;PMS_P1;PMS_P2;Temp;Humidity;BMP_temperature;BMP_pressure;BME280_temperature;BME280_humidity;BME280_pressure;Samples;Min_cycle;Max_cycle;Signal;HPM_P1;HPM_P2
2021/04/01 00:00:28;;;;;;;;;20.25;18.25;;;;;18.93;48.63;98670.28;4946252;28;102005;-83
2021/04/01 00:02:54;;;;;;;;;22.50;20.25;;;;;18.92;48.70;98665.88;4923323;28;102312;-82
2021/04/01 00:05:23;;;;;;;;;20.50;16.75;;;;;18.91;48.14;98656.00;4911981;28;104019;-82
2021/04/01 00:07:51;;;;;;;;;20.75;18.75;;;;;18.91;48.21;98662.28;4937108;28;103859;-83
2021/04/01 00:10:20;;;;;;;;;19.75;18.75;;;;;18.90;48.48;98654.34;4854183;28;104217;-81
2021/04/01 00:12:47;;;;;;;;;24.00;20.75;;;;;18.90;48.54;98648.88;4928306;28;102325;-82
2021/04/01 00:15:14;;;;;;;;;22.25;20.50;;;;;18.89;48.26;98649.94;4953349;28;103440;-82
2021/04/01 00:17:42;;;;;;;;;25.50;19.25;;;;;18.87;48.22;98647.44;4935670;28;103711;-82
2021/04/01 00:20:12;;;;;;;;;20.25;19.50;;;;;18.87;48.47;98643.88;4948834;28;102601;-83
2021/04/01 00:22:39;;;;;;;;;19.75;19.25;;;;;18.86;48.40;98631.28;4948957;28;103336;-83
2021/04/01 00:25:07;;;;;;;;;21.25;17.75;;;;;18.85;48.76;98635.09;4945217;28;108625;-83
2021/04/01 00:27:34;;;;;;;;;20.50;18.00;;;;;18.83;48.33;98631.75;4943548;28;103009;-83
2021/04/01 00:30:00;;;;;;;;;20.50;17.25;;;;;18.83;48.16;98627.13;4944693;28;102137;-82
2021/04/01 00:32:28;;;;;;;;;23.75;19.00;;;;;18.82;48.35;98630.97;4951246;28;102195;-82
2021/04/01 00:34:55;;;;;;;;;21.50;20.00;;;;;18.81;48.37;98620.25;4940323;28;103874;-82
2021/04/01 00:37:22;;;;;;;;;21.75;19.00;;;;;18.81;48.33;98625.72;4940089;28;102436;-82
2021/04/01 00:39:49;;;;;;;;;16.50;15.50;;;;;18.80;48.30;98622.16;4946358;28;104186;-82
2021/04/01 00:42:16;;;;;;;;;15.75;15.75;;;;;18.80;48.99;98621.31;4941468;28;102145;-82
2021/04/01 00:44:42;;;;;;;;;19.00;17.75;;;;;18.79;48.47;98615.00;4950494;28;103573;-82
2021/04/01 00:47:09;;;;;;;;;22.50;18.75;;;;;18.79;48.60;98619.66;4951973;28;101946;-82
2021/04/01 00:49:36;;;;;;;;;18.75;17.25;;;;;18.79;48.25;98619.66;4941386;28;102107;-83
2021/04/01 00:52:05;;;;;;;;;19.25;18.25;;;;;18.77;48.85;98616.38;4950144;28;104461;-82
2021/04/01 00:54:31;;;;;;;;;18.25;17.25;;;;;18.76;48.06;98607.31;4941836;28;103585;-82
2021/04/01 00:56:58;;;;;;;;;18.00;16.75;;;;;18.77;48.56;98613.63;4941123;28;102272;-82
2021/04/01 00:59:25;;;;;;;;;18.50;16.75;;;;;18.75;48.37;98608.38;4938371;28;102274;-82
2021/04/01 01:01:56;;;;;;;;;19.75;16.50;;;;;18.75;49.03;98602.91;4920000;28;104358;-82
2021/04/01 01:04:23;;;;;;;;;19.25;19.25;;;;;18.72;48.39;98600.69;4918140;28;103428;-82
2021/04/01 01:06:49;;;;;;;;;14.75;13.50;;;;;18.75;48.35;98596.59;4882208;28;103812;-82
2021/04/01 01:09:16;;;;;;;;;20.00;19.00;;;;;18.72;48.16;98600.69;4936361;28;102145;-82
2021/04/01 01:11:43;;;;;;;;;19.50;17.50;;;;;18.71;48.88;98596.28;4937095;28;103593;-82
2021/04/01 01:14:09;;;;;;;;;19.75;17.75;;;;;18.70;48.89;98591.88;4943416;28;108380;-82
2021/04/01 01:16:36;;;;;;;;;18.00;16.75;;;;;18.70;48.15;98591.88;4936938;28;102029;-83
2021/04/01 01:19:04;;;;;;;;;15.50;13.75;;;;;18.68;48.63;98581.19;4929775;28;102192;-82
2021/04/01 01:21:30;;;;;;;;;19.50;15.25;;;;;18.68;49.04;98585.84;4941282;28;102603;-82
2021/04/01 01:23:57;;;;;;;;;24.25;17.50;;;;;18.67;48.46;98579.53;4938015;28;103404;-81
2021/04/01 01:26:24;;;;;;;;;19.00;17.50;;;;;18.67;48.34;98574.06;4896122;28;103442;-81
2021/04/01 01:28:51;;;;;;;;;19.75;17.50;;;;;18.66;48.77;98569.66;4925340;28;103729;-82
2021/04/01 01:31:20;;;;;;;;;16.00;14.75;;;;;18.66;48.41;98572.38;4907068;28;103862;-82
2021/04/01 01:33:47;;;;;;;;;16.00;15.75;;;;;18.66;48.77;98566.09;4937462;28;103395;-81
2021/04/01 01:36:14;;;;;;;;;17.25;16.75;;;;;18.64;48.53;98562.78;4946209;28;102416;-82
2021/04/01 01:38:41;;;;;;;;;18.75;17.00;;;;;18.64;48.45;98560.03;4932055;28;102543;-82
2021/04/01 01:41:08;;;;;;;;;19.25;17.00;;;;;18.63;48.51;98559.22;4934885;28;102781;-83
2021/04/01 01:43:34;;;;;;;;;18.75;16.75;;;;;18.61;48.63;98555.88;4941027;28;103435;-81
2021/04/01 01:46:01;;;;;;;;;18.50;17.25;;;;;18.62;48.65;98551.25;4949424;28;101982;-83
2021/04/01 01:48:28;;;;;;;;;16.00;15.00;;;;;18.60;48.77;98554.22;4951682;28;102088;-82
2021/04/01 01:50:55;;;;;;;;;18.00;16.25;;;;;18.61;48.64;98546.84;4935430;28;103384;-82
2021/04/01 01:53:22;;;;;;;;;17.00;15.00;;;;;18.59;48.83;98541.63;4943164;28;103378;-83
2021/04/01 01:55:48;;;;;;;;;16.00;14.50;;;;;18.59;48.29;98538.06;4938567;28;101910;-82
2021/04/01 01:58:15;;;;;;;;;16.75;16.75;;;;;18.58;49.03;98539.97;4931821;28;101957;-81
2021/04/01 02:00:48;;;;;;;;;18.25;17.00;;;;;18.58;48.38;98541.88;4929631;28;103506;-83
2021/04/01 02:03:15;;;;;;;;;18.25;17.00;;;;;18.57;49.08;98530.09;4907724;28;108474;-77
2021/04/01 02:05:44;;;;;;;;;15.00;14.50;;;;;18.57;48.54;98530.09;4929710;28;101682;-77
2021/04/01 02:08:15;;;;;;;;;14.25;14.25;;;;;18.56;49.10;98528.44;4932268;28;102257;-77
2021/04/01 02:10:44;;;;;;;;;17.00;16.75;;;;;18.56;48.62;98530.34;4930014;28;101840;-77
2021/04/01 02:13:12;;;;;;;;;19.25;16.00;;;;;18.55;48.49;98528.69;4914901;28;108451;-77
2021/04/01 02:15:40;;;;;;;;;17.00;16.00;;;;;18.54;49.23;98524.31;4912824;28;102036;-77
2021/04/01 02:18:08;;;;;;;;;16.50;14.25;;;;;18.53;48.41;98526.22;4931191;28;104951;-77
2021/04/01 02:20:43;;;;;;;;;18.50;15.00;;;;;18.53;48.28;98523.47;4929746;28;101826;-77
2021/04/01 02:23:18;;;;;;;;;14.00;14.00;;;;;18.52;48.69;98518.22;4913070;28;109593;-77
2021/04/01 02:25:46;;;;;;;;;17.00;15.00;;;;;18.51;48.44;98513.81;4931020;28;105395;-77
2021/04/01 02:28:13;;;;;;;;;16.75;14.75;;;;;18.50;48.80;98513.00;4932324;28;103279;-77
2021/04/01 02:30:41;;;;;;;;;15.50;15.00;;;;;18.50;48.90;98513.00;4931181;28;102455;-77
2021/04/01 02:33:09;;;;;;;;;16.00;15.00;;;;;18.49;49.14;98508.59;4936611;28;104145;-76
2021/04/01 02:35:35;;;;;;;;;14.75;14.00;;;;;18.49;49.19;98515.97;4930793;28;102917;-82
2021/04/01 02:38:02;;;;;;;;;15.25;13.50;;;;;18.49;48.68;98510.50;4933747;28;102921;-83
2021/04/01 02:40:29;;;;;;;;;21.75;15.75;;;;;18.48;48.38;98511.59;4894703;28;102616;-83
2021/04/01 02:42:56;;;;;;;;;18.75;16.50;;;;;18.48;49.16;98500.63;4923555;28;106741;-82
2021/04/01 02:45:23;;;;;;;;;21.50;17.25;;;;;18.46;48.51;98506.34;4933992;28;102068;-82
2021/04/01 02:47:49;;;;;;;;;15.25;14.00;;;;;18.47;49.02;98501.72;4912295;28;101888;-81
2021/04/01 02:50:16;;;;;;;;;18.00;15.50;;;;;18.45;49.14;98496.50;4925531;28;102083;-81
2021/04/01 02:52:43;;;;;;;;;15.50;14.25;;;;;18.45;48.93;98499.25;4931854;28;103453;-82
2021/04/01 02:55:11;;;;;;;;;14.75;12.25;;;;;18.44;48.72;98491.28;4906393;28;104171;-82
2021/04/01 02:57:38;;;;;;;;;12.75;11.00;;;;;18.44;48.79;98496.75;4902856;28;103390;-83
2021/04/01 03:00:18;;;;;;;;;17.50;15.75;;;;;18.44;48.37;98496.75;4919503;28;102169;-83
2021/04/01 03:05:32;;;;;;;;;12.00;11.00;;;;;18.42;49.17;98497.00;4869009;28;101928;-82
2021/04/01 03:07:59;;;;;;;;;14.25;12.50;;;;;18.41;49.20;98506.31;4944341;28;102083;-82
2021/04/01 03:10:25;;;;;;;;;14.50;13.75;;;;;18.42;48.45;98494.25;4944146;28;102973;-83
2021/04/01 03:12:52;;;;;;;;;15.00;12.25;;;;;18.40;48.44;98488.22;4947814;28;103587;-82
2021/04/01 03:15:19;;;;;;;;;16.00;15.50;;;;;18.42;48.36;98497.00;4944285;28;102152;-82
2021/04/01 03:17:45;;;;;;;;;15.00;14.25;;;;;18.39;49.04;98492.03;4944028;28;102186;-82
2021/04/01 03:20:12;;;;;;;;;13.00;10.75;;;;;18.40;48.55;98490.13;4928202;28;102308;-81
2021/04/01 03:22:39;;;;;;;;;16.25;14.75;;;;;18.37;48.69;98496.91;4943038;28;103409;-82
2021/04/01 03:25:07;;;;;;;;;15.50;15.00;;;;;18.37;48.45;98499.66;4930504;28;102269;-83
2021/04/01 03:27:34;;;;;;;;;14.25;14.00;;;;;18.37;48.57;98494.19;4940477;28;103457;-83
2021/04/01 03:30:07;;;;;;;;;17.00;13.00;;;;;18.36;49.11;98495.28;4928371;28;102536;-82
2021/04/01 03:32:35;;;;;;;;;17.75;16.25;;;;;18.36;48.40;98492.56;4944281;28;103368;-82
2021/04/01 03:35:05;;;;;;;;;16.00;13.25;;;;;18.36;48.96;98488.97;4946331;28;102403;-83
2021/04/01 03:37:32;;;;;;;;;18.50;14.25;;;;;18.35;49.02;98484.59;4941720;28;103434;-82
2021/04/01 03:39:59;;;;;;;;;16.25;15.50;;;;;18.34;49.02;98481.00;4927988;28;102311;-82
2021/04/01 03:42:27;;;;;;;;;13.75;12.75;;;;;18.33;48.91;98479.34;4947711;28;102665;-82
2021/04/01 03:44:54;;;;;;;;;13.75;12.50;;;;;18.33;48.77;98473.88;4932569;28;103022;-82
2021/04/01 03:47:21;;;;;;;;;15.25;14.00;;;;;18.32;48.51;98476.88;4948271;28;102912;-82
2021/04/01 03:49:47;;;;;;;;;14.25;13.00;;;;;18.31;49.26;98473.31;4946991;28;103697;-81
2021/04/01 03:52:14;;;;;;;;;15.50;14.75;;;;;18.31;48.91;98464.28;4924514;28;103386;-82
2021/04/01 03:54:44;;;;;;;;;15.00;14.50;;;;;18.30;49.08;98468.91;4941014;28;104266;-82
2021/04/01 03:57:11;;;;;;;;;15.50;13.75;;;;;18.29;49.27;98467.25;4943413;28;103627;-82
2021/04/01 03:59:42;;;;;;;;;12.75;12.00;;;;;18.30;48.73;98468.91;4941908;28;103574;-82
2021/04/01 04:04:58;;;;;;;;;18.00;14.25;;;;;18.28;49.25;98462.88;4937130;28;102433;-81
2021/04/01 04:12:48;;;;;;;;;16.00;15.25;;;;;18.26;49.19;98459.56;4946864;28;103630;-82
2021/04/01 04:15:17;;;;;;;;;14.75;14.00;;;;;18.25;48.52;98463.38;4947064;28;101736;-81
2021/04/01 04:17:44;;;;;;;;;12.50;12.50;;;;;18.25;49.12;98457.91;4943429;28;102604;-82
2021/04/01 04:20:11;;;;;;;;;18.50;13.25;;;;;18.25;48.90;98457.91;4918593;28;102172;-82
2021/04/01 04:22:38;;;;;;;;;15.25;12.50;;;;;18.23;48.86;98458.19;4949058;28;103426;-82
2021/04/01 04:25:07;;;;;;;;;11.25;10.75;;;;;18.23;49.40;98457.34;4951209;28;102120;-82
2021/04/01 04:30:01;;;;;;;;;15.50;14.50;;;;;18.21;48.88;98454.03;4947303;28;102043;-82
2021/04/01 04:32:31;;;;;;;;;12.00;11.75;;;;;18.21;48.88;98448.53;4928310;28;103601;-82
2021/04/01 04:34:58;;;;;;;;;14.50;13.50;;;;;18.20;48.71;98452.34;4908798;28;102015;-82
2021/04/01 04:37:24;;;;;;;;;15.25;14.00;;;;;18.20;48.90;98449.63;4951391;28;102559;-81
2021/04/01 04:39:51;;;;;;;;;16.50;14.25;;;;;18.20;48.48;98452.34;4944866;28;101871;-82
2021/04/01 04:42:17;;;;;;;;;13.00;12.50;;;;;18.18;48.75;98447.16;4946425;28;104562;-81
2021/04/01 04:44:44;;;;;;;;;14.50;12.50;;;;;18.19;48.67;98445.25;4948912;28;102062;-82
2021/04/01 04:47:11;;;;;;;;;15.25;10.50;;;;;18.19;48.76;98445.25;4943658;28;104511;-82
2021/04/01 04:49:38;;;;;;;;;16.25;14.25;;;;;18.17;48.55;98425.50;4958191;28;102147;-82
2021/04/01 04:52:06;;;;;;;;;13.75;13.00;;;;;18.18;48.38;98435.38;4937403;28;103432;-82
2021/04/01 04:54:32;;;;;;;;;15.25;15.00;;;;;18.18;48.69;98443.59;4943306;28;104507;-82
2021/04/01 04:57:02;;;;;;;;;13.00;12.50;;;;;18.17;49.25;98436.44;4941393;28;103052;-81
2021/04/01 04:59:34;;;;;;;;;13.00;13.00;;;;;18.17;49.28;98437.28;4941417;28;102244;-82
2021/04/01 05:04:50;;;;;;;;;11.50;10.00;;;;;18.16;49.19;98432.06;4926234;28;102003;-82
2021/04/01 05:07:17;;;;;;;;;12.00;10.25;;;;;18.15;48.77;98444.06;4943702;28;102078;-82
2021/04/01 05:09:43;;;;;;;;;12.50;12.50;;;;;18.14;48.80;98432.31;4938211;28;104564;-82
2021/04/01 05:12:10;;;;;;;;;15.75;12.00;;;;;18.14;48.40;98434.22;4933579;28;105444;-83
2021/04/01 05:14:37;;;;;;;;;11.25;8.25;;;;;18.15;49.13;98433.13;4938202;28;102169;-82
2021/04/01 05:17:04;;;;;;;;;11.50;10.75;;;;;18.14;48.89;98432.31;4936006;28;103903;-82
2021/04/01 05:19:32;;;;;;;;;13.00;13.00;;;;;18.15;48.62;98427.66;4951362;28;104817;-82
2021/04/01 05:22:05;;;;;;;;;11.50;10.75;;;;;18.13;48.43;98421.63;4931468;28;103315;-82
2021/04/01 05:24:33;;;;;;;;;13.50;13.50;;;;;18.13;48.59;98424.38;4936569;28;102019;-82
2021/04/01 05:27:10;;;;;;;;;13.75;11.25;;;;;18.11;48.28;98434.72;4937150;28;102112;-83
2021/04/01 05:29:40;;;;;;;;;15.50;14.50;;;;;18.13;49.15;98421.63;4950771;28;101857;-81
2021/04/01 05:32:07;;;;;;;;;13.50;13.25;;;;;18.10;49.46;98422.16;4942736;28;103391;-82
2021/04/01 05:34:37;;;;;;;;;13.00;12.50;;;;;18.12;48.26;98422.69;4949692;28;102171;-81
2021/04/01 05:37:06;;;;;;;;;13.00;11.50;;;;;18.11;48.74;98415.56;4950775;28;103213;-82
2021/04/01 05:39:35;;;;;;;;;10.50;10.50;;;;;18.11;48.91;98421.03;4956101;28;102137;-82
2021/04/01 05:42:02;;;;;;;;;15.75;12.25;;;;;18.11;48.90;98419.13;4950026;28;103420;-82
2021/04/01 05:44:36;;;;;;;;;11.00;9.75;;;;;18.11;49.11;98421.88;4949133;28;101991;-82
2021/04/01 05:47:10;;;;;;;;;11.25;10.00;;;;;18.11;48.68;98427.34;4951632;28;104571;-82
2021/04/01 06:06:11;;;;;;;;;14.75;12.50;;;;;18.11;48.68;98421.03;4819937;28;102408;-82
2021/04/01 06:08:43;;;;;;;;;11.25;10.00;;;;;18.10;49.26;98409.25;4934181;28;102409;-82
2021/04/01 06:11:10;;;;;;;;;11.00;10.00;;;;;18.10;48.92;98416.66;4934317;28;102242;-83
2021/04/01 06:13:45;;;;;;;;;12.00;8.75;;;;;18.10;48.99;98406.53;4951580;28;103397;-81
2021/04/01 06:16:13;;;;;;;;;11.25;9.00;;;;;18.11;48.62;98404.63;4936662;28;102158;-82
2021/04/01 06:18:42;;;;;;;;;9.50;8.75;;;;;18.11;48.75;98404.63;4954221;28;101888;-82
2021/04/01 06:21:12;;;;;;;;;10.50;9.25;;;;;18.10;49.12;98403.78;4952966;28;102089;-82
2021/04/01 06:23:40;;;;;;;;;9.75;9.75;;;;;18.10;48.71;98390.09;4934168;28;103585;-83
2021/04/01 06:26:14;;;;;;;;;10.00;8.50;;;;;18.10;48.70;98390.09;4952125;28;102294;-81
2021/04/01 06:28:55;;;;;;;;;6.25;5.25;;;;;18.11;49.26;98399.16;4950539;28;102135;-82
2021/04/01 06:31:30;;;;;;;;;11.75;11.00;;;;;18.11;49.01;98404.63;4937641;28;104550;-82
2021/04/01 06:34:00;;;;;;;;;12.50;11.50;;;;;18.11;48.35;98399.16;4951078;28;103459;-82
2021/04/01 06:36:27;;;;;;;;;11.75;10.00;;;;;18.11;48.97;98399.97;4931266;28;106922;-81
2021/04/01 06:38:54;;;;;;;;;10.00;10.00;;;;;18.12;48.96;98389.88;4955935;28;102122;-81
2021/04/01 06:41:27;;;;;;;;;10.00;9.00;;;;;18.12;48.53;98390.69;4953572;28;101811;-81
2021/04/01 06:44:15;;;;;;;;;11.00;10.00;;;;;18.13;47.98;98391.53;4947999;28;103795;-81
2021/04/01 06:46:44;;;;;;;;;10.50;8.50;;;;;18.13;48.52;98386.06;4953545;28;104411;-82
2021/04/01 06:49:42;;;;;;;;;10.25;10.00;;;;;18.13;48.57;98392.34;4947254;28;102191;-81
2021/04/01 06:52:20;;;;;;;;;11.00;10.25;;;;;18.14;48.58;98393.19;4886189;28;102328;-82
2021/04/01 06:55:06;;;;;;;;;10.50;9.50;;;;;18.12;49.10;98396.16;4947476;28;108504;-83
2021/04/01 07:00:21;;;;;;;;;10.75;10.00;;;;;18.12;49.19;98379.75;4929414;28;102254;-82
2021/04/01 07:03:13;;;;;;;;;8.75;8.00;;;;;18.14;48.98;98376.75;4884577;28;102051;-81
2021/04/01 07:06:04;;;;;;;;;11.25;9.00;;;;;18.14;48.67;98371.28;4951717;28;103167;-82
2021/04/01 07:11:12;;;;;;;;;9.00;8.75;;;;;18.15;48.25;98370.19;4949847;28;102195;-82
2021/04/01 07:14:31;;;;;;;;;9.00;8.00;;;;;18.16;49.03;98363.63;4951907;28;102305;-82
2021/04/01 07:17:08;;;;;;;;;9.25;8.75;;;;;18.17;48.22;98363.38;4884446;28;108134;-83
2021/04/01 07:47:33;;;;;;;;;8.00;7.00;;;;;18.18;48.24;98334.13;4879691;28;102423;-76
2021/04/01 07:50:28;;;;;;;;;7.00;6.67;;;;;18.20;48.80;98331.94;4946385;28;103485;-76
2021/04/01 07:52:57;;;;;;;;;7.00;6.00;;;;;18.20;48.84;98326.47;4864013;28;102024;-76
2021/04/01 07:55:35;;;;;;;;;7.00;6.50;;;;;18.21;48.57;98319.91;4927807;28;103363;-76
2021/04/01 08:06:27;;;;;;;;;8.00;7.25;;;;;18.22;48.37;98324.31;4845859;28;108177;-82
2021/04/01 08:09:04;;;;;;;;;6.50;6.25;;;;;18.23;47.61;98321.31;4805143;28;103776;-81
2021/04/01 08:11:38;;;;;;;;;8.00;8.00;;;;;18.23;48.00;98323.22;4948059;28;103054;-83
2021/04/01 08:14:19;;;;;;;;;9.00;9.00;;;;;18.24;47.96;98316.66;4935944;28;102194;-83
2021/04/01 08:19:24;;;;;;;;;7.00;6.00;;;;;18.25;47.82;98318.31;4946820;28;102217;-82
2021/04/01 08:22:22;;;;;;;;;8.00;7.33;;;;;18.25;48.74;98318.31;4937681;28;102873;-83
2021/04/01 08:25:10;;;;;;;;;7.67;6.67;;;;;18.25;48.02;98310.09;4885795;28;102803;-82
2021/04/01 08:28:19;;;;;;;;;10.00;9.00;;;;;18.25;47.85;98302.72;4874855;28;102260;-82
2021/04/01 08:31:17;;;;;;;;;8.33;8.00;;;;;18.25;48.50;98301.88;4887171;28;101901;-83
2021/04/01 08:37:10;;;;;;;;;8.00;7.75;;;;;18.26;48.24;98314.50;4866819;28;102205;-83
2021/04/01 08:39:56;;;;;;;;;7.00;6.00;;;;;18.26;48.04;98295.34;4875051;28;102262;-82
2021/04/01 08:42:59;;;;;;;;;7.00;6.00;;;;;18.27;48.16;98294.25;4952834;28;101839;-82
2021/04/01 08:45:53;;;;;;;;;7.33;6.00;;;;;18.27;48.59;98289.63;4864510;28;109791;-83
2021/04/01 08:48:50;;;;;;;;;7.00;6.00;;;;;18.28;47.81;98290.44;4861499;28;102772;-81
2021/04/01 08:51:55;;;;;;;;;6.75;6.25;;;;;18.28;48.64;98284.97;4947416;28;103778;-82
2021/04/01 08:54:46;;;;;;;;;6.00;6.00;;;;;18.29;48.19;98292.06;4851385;28;102332;-81
2021/04/01 08:57:19;;;;;;;;;6.00;6.00;;;;;18.30;47.84;98288.25;4933694;28;103403;-83
2021/04/01 08:59:53;;;;;;;;;6.75;5.00;;;;;18.30;48.39;98282.78;4938420;28;101980;-82
2021/04/01 09:02:23;;;;;;;;;7.00;7.00;;;;;18.30;47.84;98271.84;4947671;28;101842;-82
2021/04/01 09:04:51;;;;;;;;;8.25;6.00;;;;;18.29;47.79;98270.19;4942406;28;103244;-77
2021/04/01 09:07:29;;;;;;;;;6.50;5.75;;;;;18.29;48.16;98265.53;4951538;28;103431;-83
2021/04/01 09:10:02;;;;;;;;;6.67;6.00;;;;;18.33;48.21;98270.50;4836281;28;101990;-82
2021/04/01 09:12:37;;;;;;;;;6.00;6.00;;;;;18.33;48.05;98273.25;4948775;28;102471;-82
2021/04/01 09:15:06;;;;;;;;;9.00;7.00;;;;;18.32;48.86;98266.94;4954644;28;102338;-83
2021/04/01 09:17:34;;;;;;;;;7.67;6.00;;;;;18.34;48.17;98258.44;4931357;28;103605;-82
2021/04/01 09:20:20;;;;;;;;;6.00;6.00;;;;;18.33;47.71;98265.84;4921020;28;102248;-82
2021/04/01 09:22:49;;;;;;;;;11.00;8.00;;;;;18.35;47.73;98262.84;4952457;28;102432;-83
2021/04/01 09:25:18;;;;;;;;;7.00;6.00;;;;;18.35;48.11;98258.19;4939463;28;102204;-83
2021/04/01 09:27:50;;;;;;;;;7.00;5.67;;;;;18.36;48.24;98254.38;4920795;28;107161;-83
2021/04/01 09:30:18;;;;;;;;;5.33;5.33;;;;;18.37;48.73;98244.28;4949901;28;102092;-83
2021/04/01 09:32:47;;;;;;;;;6.00;6.00;;;;;18.36;48.38;98246.19;4935070;28;102304;-83
2021/04/01 09:35:13;;;;;;;;;7.00;6.00;;;;;18.38;48.37;98248.63;4946118;28;102529;-83
2021/04/01 09:37:51;;;;;;;;;6.75;5.00;;;;;18.39;48.20;98244.81;4952629;28;103422;-83
2021/04/01 09:40:18;;;;;;;;;5.00;4.33;;;;;18.37;47.59;98245.06;4948197;28;103067;-83
2021/04/01 09:42:46;;;;;;;;;7.00;5.00;;;;;18.39;47.69;98242.09;4953488;28;104423;-83
2021/04/01 09:45:27;;;;;;;;;7.00;6.25;;;;;18.40;48.14;98238.25;4952202;28;102359;-82
2021/04/01 09:47:57;;;;;;;;;6.00;6.00;;;;;18.41;47.64;98240.75;4950241;28;108158;-81
2021/04/01 09:50:33;;;;;;;;;5.00;5.00;;;;;18.42;48.24;98236.06;4923112;28;102143;-82
2021/04/01 09:53:11;;;;;;;;;4.67;4.00;;;;;18.43;47.89;98235.81;4932628;28;101819;-83
2021/04/01 09:55:40;;;;;;;;;6.00;5.00;;;;;18.44;47.73;98228.44;4925789;28;102339;-83
2021/04/01 09:58:17;;;;;;;;;6.00;4.25;;;;;18.45;48.39;98230.94;4948315;28;103640;-82
2021/04/01 10:03:34;;;;;;;;;8.00;5.00;;;;;18.46;48.03;98226.28;4921325;28;102279;-84
2021/04/01 10:06:01;;;;;;;;;6.67;5.67;;;;;18.46;48.39;98218.88;4886763;28;101835;-83
2021/04/01 10:08:32;;;;;;;;;6.00;5.00;;;;;18.49;47.88;98220.28;4945939;28;103468;-83
2021/04/01 10:11:21;;;;;;;;;6.33;6.00;;;;;18.48;47.67;98219.44;4952327;28;101968;-84
2021/04/01 10:13:48;;;;;;;;;6.67;6.00;;;;;18.50;48.32;98220.03;4918517;28;104560;-84
2021/04/01 10:16:22;;;;;;;;;5.00;5.00;;;;;18.52;48.39;98209.63;4935278;28;102423;-84
2021/04/01 10:18:49;;;;;;;;;4.00;4.00;;;;;18.53;47.79;98210.47;4929535;28;108120;-85
2021/04/01 10:21:16;;;;;;;;;6.00;4.33;;;;;18.53;47.66;98208.56;4950965;28;102134;-85
2021/04/01 10:24:06;;;;;;;;;8.00;7.00;;;;;18.55;48.26;98200.91;4935592;28;102218;-86
2021/04/01 10:26:36;;;;;;;;;6.00;4.33;;;;;18.57;48.05;98203.38;4869255;28;101856;-83
2021/04/01 10:29:10;;;;;;;;;6.00;5.00;;;;;18.58;48.56;98194.91;4945818;28;103608;-85
2021/04/01 10:31:50;;;;;;;;;6.33;5.67;;;;;18.60;48.12;98195.47;4920150;28;102459;-84
2021/04/01 10:34:48;;;;;;;;;5.67;5.00;;;;;18.61;48.65;98188.91;4946506;28;101767;-85
2021/04/01 10:37:16;;;;;;;;;4.00;4.00;;;;;18.62;48.34;98182.34;4884689;28;102153;-84
2021/04/01 10:39:43;;;;;;;;;5.00;5.00;;;;;18.63;47.99;98183.19;4916082;28;103253;-85
2021/04/01 10:42:13;;;;;;;;;6.00;6.00;;;;;18.65;48.07;98187.28;4945691;28;101986;-83
2021/04/01 10:44:40;;;;;;;;;6.00;5.00;;;;;18.63;48.59;98164.00;4952167;28;101988;-84
2021/04/01 10:47:08;;;;;;;;;5.00;5.00;;;;;18.66;47.64;98171.69;4943348;28;103780;-85
2021/04/01 10:49:38;;;;;;;;;4.67;4.67;;;;;18.68;48.50;98170.34;4928199;28;103386;-84
2021/04/01 10:52:14;;;;;;;;;6.00;5.00;;;;;18.69;47.76;98168.41;4946527;28;104179;-85
2021/04/01 10:54:46;;;;;;;;;5.00;5.00;;;;;18.70;48.54;98175.56;4941319;28;102978;-85
2021/04/01 10:57:25;;;;;;;;;7.00;6.00;;;;;18.71;48.61;98171.72;4946138;28;101919;-85
2021/04/01 10:59:51;;;;;;;;;5.00;4.00;;;;;18.73;47.97;98166.00;4929372;28;108311;-83
2021/04/01 11:02:22;;;;;;;;;5.33;4.33;;;;;18.73;48.24;98155.03;4949449;28;102098;-84
2021/04/01 11:05:01;;;;;;;;;5.33;4.33;;;;;18.73;48.17;98155.88;4940954;28;101786;-85
2021/04/01 11:07:33;;;;;;;;;5.67;4.00;;;;;18.73;48.13;98156.66;4877353;28;102178;-85
2021/04/01 11:10:01;;;;;;;;;5.67;5.00;;;;;18.76;47.86;98157.25;4914445;28;102341;-83
2021/04/01 11:12:29;;;;;;;;;5.00;5.00;;;;;18.76;48.18;98154.50;4931013;28;102274;-83
2021/04/01 11:15:07;;;;;;;;;6.00;6.00;;;;;18.77;47.80;98145.22;4931204;28;102944;-84
2021/04/01 11:17:39;;;;;;;;;6.75;5.75;;;;;18.77;48.44;98147.94;4944868;28;104560;-85
2021/04/01 11:20:08;;;;;;;;;3.00;3.00;;;;;18.77;48.05;98140.56;4949812;28;102554;-85
2021/04/01 11:22:39;;;;;;;;;6.00;4.33;;;;;18.79;48.17;98143.84;4917816;28;102150;-85
2021/04/01 11:25:13;;;;;;;;;4.00;3.00;;;;;18.81;47.90;98140.84;4946236;28;102420;-85
2021/04/01 11:27:52;;;;;;;;;5.00;4.00;;;;;18.80;48.18;98142.75;4931149;28;102597;-85
2021/04/01 11:30:18;;;;;;;;;5.00;4.67;;;;;18.82;48.20;98153.47;4949580;28;109647;-83
2021/04/01 11:32:53;;;;;;;;;6.00;5.00;;;;;18.82;48.37;98150.72;4934873;28;104611;-85
2021/04/01 11:35:21;;;;;;;;;6.00;5.00;;;;;18.83;48.18;98133.16;4953845;28;103295;-85
2021/04/01 11:37:54;;;;;;;;;6.33;6.33;;;;;18.83;47.92;98128.50;4944727;28;101924;-80
2021/04/01 11:40:21;;;;;;;;;5.00;4.00;;;;;18.85;47.73;98131.00;4947418;28;102452;-77
2021/04/01 11:42:54;;;;;;;;;5.00;5.00;;;;;18.87;48.02;98134.28;4951764;28;101805;-86
2021/04/01 11:45:37;;;;;;;;;6.33;5.00;;;;;18.88;48.15;98139.50;4926907;28;101921;-79
2021/04/01 11:48:04;;;;;;;;;7.00;6.00;;;;;18.88;48.12;98127.72;4931756;28;104775;-84
2021/04/01 11:50:31;;;;;;;;;5.00;5.00;;;;;18.87;48.34;98126.88;4936371;28;103448;-83
2021/04/01 11:52:59;;;;;;;;;6.00;5.00;;;;;18.87;47.76;98128.81;4950729;28;102120;-83
2021/04/01 11:55:27;;;;;;;;;5.67;5.67;;;;;18.89;47.63;98129.38;4948411;28;103941;-85
2021/04/01 11:57:54;;;;;;;;;5.67;4.67;;;;;18.89;48.04;98115.69;4955058;28;104833;-83
2021/04/01 12:00:26;;;;;;;;;5.00;4.33;;;;;18.89;48.16;98126.63;4953002;28;103791;-84
2021/04/01 12:03:09;;;;;;;;;6.00;6.00;;;;;18.90;47.93;98122.81;4938985;28;102395;-82
2021/04/01 12:05:39;;;;;;;;;6.67;4.00;;;;;18.91;47.91;98124.47;4950863;28;103981;-83
2021/04/01 12:08:06;;;;;;;;;6.00;5.00;;;;;18.91;47.72;98121.72;4918578;28;102332;-85
2021/04/01 12:10:34;;;;;;;;;5.00;4.67;;;;;18.90;47.91;98115.41;4920515;28;103272;-83
2021/04/01 12:13:01;;;;;;;;;7.33;6.00;;;;;18.91;47.74;98124.47;4950335;28;101795;-85
2021/04/01 12:15:38;;;;;;;;;7.00;6.00;;;;;18.92;47.68;98104.19;4952001;28;101769;-84
2021/04/01 12:18:06;;;;;;;;;6.67;5.00;;;;;18.93;48.06;98105.84;4953984;28;102147;-83
2021/04/01 12:20:33;;;;;;;;;6.00;6.00;;;;;18.93;48.12;98112.13;4893173;28;103401;-83
2021/04/01 12:23:13;;;;;;;;;5.00;5.00;;;;;18.94;48.00;98112.97;4939630;28;102344;-83
2021/04/01 12:25:40;;;;;;;;;5.33;4.67;;;;;18.94;47.62;98112.97;4937652;28;101865;-84
2021/04/01 12:28:07;;;;;;;;;8.00;5.33;;;;;18.93;47.55;98108.56;4948539;28;102235;-83
2021/04/01 12:30:37;;;;;;;;;6.00;5.67;;;;;18.94;47.52;98104.75;4943884;28;103841;-84
2021/04/01 12:33:18;;;;;;;;;4.67;4.67;;;;;18.95;47.99;98100.91;4952037;28;101795;-84
2021/04/01 12:36:00;;;;;;;;;6.67;5.33;;;;;18.94;48.01;98102.84;4934611;28;102225;-84
2021/04/01 12:38:37;;;;;;;;;8.00;6.00;;;;;18.95;47.47;98106.41;4936912;28;102328;-85
2021/04/01 12:41:21;;;;;;;;;5.33;5.00;;;;;18.95;47.82;98103.66;4950827;28;103577;-84
2021/04/01 12:43:48;;;;;;;;;6.00;5.00;;;;;18.95;48.01;98103.66;4951888;28;102094;-83
2021/04/01 12:46:14;;;;;;;;;7.00;6.00;;;;;18.96;47.64;98088.84;4953927;28;102072;-75
2021/04/01 12:48:51;;;;;;;;;6.33;5.67;;;;;18.93;47.91;98084.75;4950020;28;102121;-76
2021/04/01 12:51:20;;;;;;;;;5.33;5.33;;;;;18.95;47.93;98089.97;4950359;28;108131;-76
2021/04/01 12:54:07;;;;;;;;;5.67;5.00;;;;;18.95;47.65;98093.53;4935955;28;101971;-76
2021/04/01 12:56:55;;;;;;;;;7.00;5.33;;;;;18.98;47.60;98090.25;4865868;28;103068;-76
2021/04/01 12:59:31;;;;;;;;;5.00;4.33;;;;;18.98;47.88;98081.19;4947733;28;102357;-76